Time;durP1;ratioP1;P1;durP2;ratioP2;P2;SDS_P1;SDS_P2;PMS_P1;PMS_P2;Temp;Humidity;BMP_temperature;BMP_pressure;BME280_temperature;BME280_humidity;BME280_pressure;Samples;Min_cycle;Max_cycle;Signal;HPM_P1;HPM_P2
2022/01/29 00:01:21;;;;;;;7.93;2.70;;;;;;;-0.94;100.00;97194.19;5131322;27;20043;-60
2022/01/29 00:03:48;;;;;;;3.97;2.00;;;;;;;-0.93;100.00;97206.22;5131119;28;20424;-61
2022/01/29 00:06:16;;;;;;;5.17;2.00;;;;;;;-0.97;100.00;97208.94;5131830;28;20130;-61
2022/01/29 00:08:44;;;;;;;2.90;1.33;;;;;;;-1.00;100.00;97207.31;5131788;28;20042;-60
2022/01/29 00:11:14;;;;;;;4.07;1.20;;;;;;;-1.01;100.00;97215.97;5130916;28;20050;-59
2022/01/29 00:13:41;;;;;;;6.03;1.77;;;;;;;-1.02;100.00;97222.00;5131506;27;20180;-61
2022/01/29 00:16:08;;;;;;;2.20;1.40;;;;;;;-1.01;100.00;97213.38;5135164;27;20538;-63
2022/01/29 00:18:37;;;;;;;5.60;1.93;;;;;;;-0.97;100.00;97227.00;5135226;27;20144;-60
2022/01/29 00:21:05;;;;;;;3.03;1.27;;;;;;;-0.93;100.00;97231.19;5135560;27;20043;-59
2022/01/29 00:23:32;;;;;;;5.43;2.33;;;;;;;-0.93;100.00;97234.63;5135464;27;20039;-62
2022/01/29 00:26:00;;;;;;;3.20;1.80;;;;;;;-0.93;100.00;97226.88;5135155;27;20157;-60
2022/01/29 00:28:28;;;;;;;3.13;1.70;;;;;;;-0.96;100.00;97239.03;5136860;27;20039;-60
2022/01/29 00:30:56;;;;;;;7.20;2.70;;;;;;;-1.00;100.00;97240.88;5136731;27;20050;-60
2022/01/29 00:33:23;;;;;;;4.07;2.43;;;;;;;-1.08;100.00;97239.41;5136794;27;20051;-61
2022/01/29 00:35:51;;;;;;;8.80;3.33;;;;;;;-1.11;100.00;97245.53;5136828;27;20043;-60
2022/01/29 00:38:18;;;;;;;5.97;2.70;;;;;;;-1.17;100.00;97243.13;5136794;27;20071;-61
2022/01/29 00:40:46;;;;;;;2.40;2.00;;;;;;;-1.21;100.00;97246.69;5135144;27;20058;-61
2022/01/29 00:43:13;;;;;;;3.33;2.07;;;;;;;-1.23;100.00;97245.03;5135037;27;20043;-61
2022/01/29 00:45:40;;;;;;;2.07;1.60;;;;;;;-1.24;100.00;97251.09;5136051;27;20041;-60
2022/01/29 00:48:07;;;;;;;3.13;1.40;;;;;;;-1.22;100.00;97250.16;5134670;27;20043;-61
2022/01/29 00:50:34;;;;;;;3.47;1.43;;;;;;;-1.24;100.00;97245.94;5134682;27;20150;-61
2022/01/29 00:53:03;;;;;;;8.73;2.43;;;;;;;-1.25;100.00;97254.56;5134477;27;20039;-61
2022/01/29 00:55:30;;;;;;;7.80;1.00;;;;;;;-1.25;100.00;97250.25;5135969;27;20118;-61
2022/01/29 00:57:57;;;;;;;13.50;1.77;;;;;;;-1.19;100.00;97252.66;5134760;27;20387;-60
2022/01/29 01:00:24;;;;;;;2.47;1.40;;;;;;;-1.22;100.00;97268.22;5134599;27;20488;-61
2022/01/29 01:02:51;;;;;;;4.57;1.97;;;;;;;-1.25;100.00;97257.13;5134330;27;20054;-60
2022/01/29 01:05:18;;;;;;;3.27;1.53;;;;;;;-1.32;100.00;97251.31;5134354;27;20042;-60
2022/01/29 01:07:45;;;;;;;3.87;1.50;;;;;;;-1.32;100.00;97253.03;5134365;27;20066;-60
2022/01/29 01:10:14;;;;;;;6.17;2.00;;;;;;;-1.35;100.00;97256.56;5133973;27;20038;-61
2022/01/29 01:12:41;;;;;;;5.17;1.97;;;;;;;-1.36;100.00;97254.03;5134380;27;20039;-60
2022/01/29 01:15:09;;;;;;;4.27;1.97;;;;;;;-1.32;100.00;97250.47;5134867;27;20113;-60
2022/01/29 01:17:37;;;;;;;6.10;1.90;;;;;;;-1.30;100.00;97275.34;5135894;27;20499;-61
2022/01/29 01:20:05;;;;;;;5.60;1.80;;;;;;;-1.33;100.00;97265.13;5134638;27;20070;-61
2022/01/29 01:22:32;;;;;;;3.47;1.80;;;;;;;-1.37;100.00;97266.09;5128308;27;20126;-61
2022/01/29 01:24:59;;;;;;;4.43;1.57;;;;;;;-1.35;100.00;97273.81;5135393;27;20055;-62
2022/01/29 01:27:27;;;;;;;4.67;1.90;;;;;;;-1.32;100.00;97269.38;5133309;27;20492;-61
2022/01/29 01:29:54;;;;;;;2.57;1.73;;;;;;;-1.31;100.00;97263.31;5134673;27;20070;-61
2022/01/29 01:32:22;;;;;;;3.47;1.53;;;;;;;-1.34;100.00;97266.03;5135554;27;20046;-62
2022/01/29 01:34:53;;;;;;;4.10;1.63;;;;;;;-1.38;100.00;97279.03;5135829;27;20035;-62
2022/01/29 01:37:31;;;;;;;3.37;2.00;;;;;;;-1.38;100.00;97282.44;5133916;27;20043;-62
2022/01/29 01:39:59;;;;;;;1.60;1.37;;;;;;;-1.38;100.00;97266.97;5133672;27;20047;-62
2022/01/29 01:42:27;;;;;;;8.03;1.33;;;;;;;-1.42;100.00;97277.44;5133412;27;20056;-61
2022/01/29 01:44:55;;;;;;;5.73;1.67;;;;;;;-1.41;100.00;97274.81;5133621;27;20043;-61
2022/01/29 01:47:22;;;;;;;1.60;1.10;;;;;;;-1.42;100.00;97272.28;5133696;27;20050;-61
2022/01/29 01:49:50;;;;;;;1.73;1.30;;;;;;;-1.53;100.00;97274.34;5133327;27;20039;-61
2022/01/29 01:52:18;;;;;;;3.13;1.47;;;;;;;-1.60;100.00;97289.16;5133330;27;20493;-62
2022/01/29 01:54:45;;;;;;;1.87;1.40;;;;;;;-1.67;100.00;97291.91;5134283;27;20047;-61
2022/01/29 01:57:12;;;;;;;1.33;1.10;;;;;;;-1.65;100.00;97280.66;5135329;27;20041;-61
2022/01/29 01:59:41;;;;;;;5.93;1.47;;;;;;;-1.72;100.00;97297.19;5133682;27;20076;-61
2022/01/29 02:02:08;;;;;;;3.03;1.50;;;;;;;-1.70;100.00;97292.84;5133393;27;20838;-61
2022/01/29 02:04:35;;;;;;;2.43;1.33;;;;;;;-1.84;100.00;97310.44;5134915;27;20070;-61
2022/01/29 02:07:02;;;;;;;1.60;1.07;;;;;;;-1.89;100.00;97312.28;5134459;27;20047;-61
2022/01/29 02:09:31;;;;;;;2.17;0.93;;;;;;;-1.87;100.00;97314.84;5133200;27;20547;-61
2022/01/29 02:12:00;;;;;;;6.03;1.13;;;;;;;-1.83;100.00;97322.41;5133397;27;20043;-61
2022/01/29 02:14:30;;;;;;;5.47;1.37;;;;;;;-1.85;100.00;97326.78;5133111;27;20035;-62
2022/01/29 02:16:59;;;;;;;2.40;1.03;;;;;;;-1.81;100.00;97310.34;5134912;27;20039;-61
2022/01/29 02:19:26;;;;;;;3.97;1.10;;;;;;;-1.85;100.00;97339.69;5116212;27;20035;-62
2022/01/29 02:21:55;;;;;;;2.23;0.90;;;;;;;-1.87;100.00;97328.53;5133975;27;20043;-62
2022/01/29 02:24:22;;;;;;;0.90;0.70;;;;;;;-1.87;100.00;97315.66;5131643;27;20553;-61
2022/01/29 02:26:49;;;;;;;2.87;0.70;;;;;;;-1.90;100.00;97331.19;5134051;27;20534;-61
2022/01/29 02:29:17;;;;;;;5.93;1.10;;;;;;;-1.89;100.00;97326.91;5132537;27;20517;-61
2022/01/29 02:31:48;;;;;;;2.27;0.67;;;;;;;-1.93;100.00;97322.72;5132854;27;20043;-61
2022/01/29 02:34:16;;;;;;;7.97;1.93;;;;;;;-1.95;100.00;97351.09;5132706;27;20042;-61
2022/01/29 02:36:44;;;;;;;3.37;1.27;;;;;;;-1.97;100.00;97365.75;5132524;27;20031;-61
2022/01/29 02:39:13;;;;;;;4.07;1.47;;;;;;;-1.99;100.00;97357.22;5132497;27;20050;-61
2022/01/29 02:41:43;;;;;;;1.90;1.07;;;;;;;-2.04;100.00;97365.97;5132371;27;20084;-62
2022/01/29 02:44:14;;;;;;;1.13;0.67;;;;;;;-2.04;100.00;97376.28;5132730;27;20040;-61
2022/01/29 02:46:50;;;;;;;3.37;0.97;;;;;;;-2.01;100.00;97379.59;5133208;27;20039;-62
2022/01/29 02:49:18;;;;;;;3.87;1.10;;;;;;;-2.02;100.00;97372.75;5133539;27;20050;-61
2022/01/29 02:51:46;;;;;;;3.97;1.00;;;;;;;-2.00;100.00;97371.00;5132046;27;20070;-61
2022/01/29 02:54:16;;;;;;;3.03;1.27;;;;;;;-2.00;100.00;97371.00;5133906;27;20092;-61
2022/01/29 02:56:43;;;;;;;6.93;1.23;;;;;;;-1.96;99.97;97372.63;5133833;27;20426;-62
2022/01/29 02:59:10;;;;;;;4.03;1.33;;;;;;;-1.92;96.19;97383.69;5132290;27;20096;-61
2022/01/29 03:01:38;;;;;;;1.80;1.20;;;;;;;-1.93;94.15;97393.16;5133114;27;20079;-61
2022/01/29 03:04:06;;;;;;;2.13;1.13;;;;;;;-1.91;91.89;97391.38;5132768;27;20034;-61
2022/01/29 03:06:33;;;;;;;2.73;0.83;;;;;;;-1.91;91.73;97388.78;5131931;27;20039;-61
2022/01/29 03:09:01;;;;;;;5.40;1.40;;;;;;;-1.91;90.91;97396.53;5131967;27;20066;-61
2022/01/29 03:11:29;;;;;;;3.37;1.47;;;;;;;-1.87;91.10;97399.91;5132566;27;20032;-61
2022/01/29 03:13:56;;;;;;;2.70;1.20;;;;;;;-1.90;90.85;97405.13;5132908;27;20391;-60
2022/01/29 03:16:23;;;;;;;8.37;1.10;;;;;;;-1.89;90.75;97414.53;5131942;27;20127;-61
2022/01/29 03:18:50;;;;;;;2.37;0.87;;;;;;;-1.89;90.63;97414.53;5132079;27;20047;-61
2022/01/29 03:21:17;;;;;;;2.00;1.17;;;;;;;-1.88;91.81;97416.22;5131615;27;20042;-61
2022/01/29 03:23:44;;;;;;;3.43;1.03;;;;;;;-1.87;91.89;97431.66;5131728;27;20043;-61
2022/01/29 03:26:11;;;;;;;3.93;1.13;;;;;;;-1.92;90.61;97428.34;5131799;27;20035;-60
2022/01/29 03:28:39;;;;;;;1.63;0.60;;;;;;;-1.95;89.67;97428.44;5131727;27;20069;-60
2022/01/29 03:31:06;;;;;;;2.47;1.10;;;;;;;-1.92;90.38;97435.22;5113178;27;20032;-61
2022/01/29 03:33:33;;;;;;;2.90;1.00;;;;;;;-1.93;90.30;97442.13;5113449;27;20039;-61
2022/01/29 03:36:00;;;;;;;2.17;1.37;;;;;;;-1.96;90.55;97437.03;5131243;27;20126;-61
2022/01/29 03:38:27;;;;;;;7.10;1.20;;;;;;;-1.95;91.03;97440.44;5131597;27;20069;-61
2022/01/29 03:40:57;;;;;;;3.50;1.00;;;;;;;-1.99;90.45;97444.00;5131998;27;20483;-61
2022/01/29 03:43:29;;;;;;;2.43;0.90;;;;;;;-2.04;90.57;97431.25;5132966;27;20039;-61
2022/01/29 03:45:57;;;;;;;6.77;1.63;;;;;;;-2.03;90.69;97438.09;5131939;27;20066;-61
2022/01/29 03:48:25;;;;;;;3.17;0.93;;;;;;;-2.02;90.91;97442.34;5130792;27;20084;-60
2022/01/29 03:50:52;;;;;;;2.87;0.90;;;;;;;-2.05;90.84;97446.72;5131045;27;20134;-61
2022/01/29 03:53:19;;;;;;;1.40;1.17;;;;;;;-2.07;91.21;97436.47;5131176;27;20103;-61
2022/01/29 03:55:46;;;;;;;3.43;0.70;;;;;;;-2.04;91.70;97457.00;5132076;27;20122;-60
2022/01/29 03:58:13;;;;;;;2.63;0.70;;;;;;;-2.07;91.71;97431.31;5132031;27;20054;-60
2022/01/29 04:00:40;;;;;;;6.77;1.00;;;;;;;-2.08;91.59;97446.81;5131400;27;20045;-60
2022/01/29 04:03:09;;;;;;;5.10;1.57;;;;;;;-2.10;91.12;97444.25;5130999;27;20074;-60
2022/01/29 04:05:36;;;;;;;2.20;1.07;;;;;;;-2.06;91.18;97450.16;5114442;28;20042;-60
2022/01/29 04:08:07;;;;;;;2.73;0.70;;;;;;;-2.02;91.33;97454.38;5132162;28;20127;-60
2022/01/29 04:10:34;;;;;;;1.23;0.33;;;;;;;-2.01;91.87;97463.81;5130991;28;20035;-60
2022/01/29 04:13:01;;;;;;;2.80;0.60;;;;;;;-2.00;91.76;97468.06;5131336;28;20119;-60
2022/01/29 04:15:28;;;;;;;3.17;1.00;;;;;;;-1.94;92.24;97468.78;5132767;28;20483;-61
2022/01/29 04:17:55;;;;;;;2.73;0.90;;;;;;;-1.94;92.22;97473.94;5131220;28;20506;-60
2022/01/29 04:20:24;;;;;;;3.27;0.80;;;;;;;-1.90;92.66;97470.38;5131154;28;20574;-61
2022/01/29 04:22:51;;;;;;;2.43;0.70;;;;;;;-1.87;92.89;97460.00;5130696;28;20499;-62
2022/01/29 04:25:18;;;;;;;4.87;0.80;;;;;;;-1.91;92.43;97473.00;5131404;28;20563;-61
2022/01/29 04:27:47;;;;;;;3.10;1.30;;;;;;;-1.92;92.55;97466.16;5131089;28;20444;-61
2022/01/29 04:30:26;;;;;;;8.00;1.33;;;;;;;-1.93;92.98;97479.94;5132563;28;20092;-59
2022/01/29 04:33:02;;;;;;;2.50;1.30;;;;;;;-1.94;93.27;97481.66;5131986;28;20063;-60
2022/01/29 04:35:32;;;;;;;6.10;1.20;;;;;;;-1.97;93.64;97475.75;5128208;28;20039;-60
2022/01/29 04:37:59;;;;;;;2.30;0.90;;;;;;;-2.03;93.54;97471.59;5131306;28;20031;-60
2022/01/29 04:40:26;;;;;;;5.77;1.90;;;;;;;-2.07;93.59;97480.28;5131253;28;20046;-60
2022/01/29 04:42:53;;;;;;;5.40;1.70;;;;;;;-2.02;93.82;97491.31;5131276;28;20044;-61
2022/01/29 04:45:20;;;;;;;7.97;3.07;;;;;;;-2.03;94.52;97478.44;5130940;28;20755;-60
2022/01/29 04:47:47;;;;;;;5.60;1.30;;;;;;;-2.02;94.01;97493.88;5131157;28;20104;-60
2022/01/29 04:50:14;;;;;;;2.30;1.37;;;;;;;-2.01;93.96;97472.38;5130984;28;20039;-61
2022/01/29 04:52:43;;;;;;;4.87;1.70;;;;;;;-2.09;92.62;97489.75;5131217;28;20109;-61
2022/01/29 04:55:10;;;;;;;6.70;1.73;;;;;;;-2.11;92.14;97491.53;5130602;28;20049;-61
2022/01/29 04:57:40;;;;;;;5.93;1.00;;;;;;;-2.13;91.46;97492.41;5130911;28;20032;-61
2022/01/29 05:00:10;;;;;;;3.80;1.67;;;;;;;-2.15;90.44;97500.22;5130778;27;20040;-61
2022/01/29 05:02:37;;;;;;;2.23;1.13;;;;;;;-2.12;89.18;97487.25;5131287;27;20061;-60
2022/01/29 05:05:06;;;;;;;2.50;1.50;;;;;;;-2.09;88.41;97488.91;5136278;27;20039;-61
2022/01/29 05:07:33;;;;;;;3.00;1.27;;;;;;;-2.13;85.63;97493.28;5136366;27;20457;-61
2022/01/29 05:10:01;;;;;;;2.80;0.80;;;;;;;-2.12;85.35;97497.53;5135831;27;20399;-62
2022/01/29 05:12:33;;;;;;;2.57;0.73;;;;;;;-2.06;85.85;97499.13;5135167;27;20503;-61
2022/01/29 05:15:10;;;;;;;3.03;1.20;;;;;;;-2.12;85.31;97505.28;5134240;27;20047;-61
2022/01/29 05:28:36;;;;;;;1.90;0.93;;;;;;;-2.06;88.67;97510.31;5133895;27;20042;-60
2022/01/29 05:31:03;;;;;;;1.63;0.73;;;;;;;-2.05;89.31;97521.47;5133904;27;20047;-60
2022/01/29 05:33:30;;;;;;;4.07;0.50;;;;;;;-2.14;90.73;97525.09;5115551;27;20039;-61
2022/01/29 05:35:57;;;;;;;5.60;1.20;;;;;;;-2.21;93.38;97536.41;5133831;27;20047;-60
2022/01/29 05:38:26;;;;;;;3.87;2.03;;;;;;;-2.35;96.85;97541.00;5133483;27;20039;-60
2022/01/29 05:40:55;;;;;;;6.57;1.70;;;;;;;-2.42;100.00;97545.44;5133686;27;20035;-60
2022/01/29 05:43:22;;;;;;;6.43;1.87;;;;;;;-2.46;100.00;97546.41;5133002;27;20415;-62
2022/01/29 05:45:49;;;;;;;6.90;1.93;;;;;;;-2.51;100.00;97552.53;5134892;27;20507;-60
2022/01/29 05:48:16;;;;;;;10.80;3.57;;;;;;;-2.53;100.00;97552.53;5133658;27;20043;-60
2022/01/29 05:50:43;;;;;;;10.23;2.07;;;;;;;-2.57;100.00;97547.47;5133612;27;20534;-60
2022/01/29 05:53:10;;;;;;;9.87;2.70;;;;;;;-2.55;100.00;97564.59;5133292;27;20403;-60
2022/01/29 05:55:37;;;;;;;5.53;2.30;;;;;;;-2.49;100.00;97571.34;5133288;27;20043;-60
2022/01/29 05:58:06;;;;;;;7.03;2.83;;;;;;;-2.46;100.00;97581.59;5135284;27;20459;-61
2022/01/29 06:00:33;;;;;;;8.13;2.83;;;;;;;-2.44;100.00;97574.69;5134284;27;20047;-60
2022/01/29 06:03:01;;;;;;;6.07;2.00;;;;;;;-2.49;100.00;97576.50;5133545;27;20043;-61
2022/01/29 06:05:29;;;;;;;8.00;3.00;;;;;;;-2.52;100.00;97580.00;5133361;27;20513;-61
2022/01/29 06:07:56;;;;;;;9.23;2.63;;;;;;;-2.53;100.00;97578.31;5133532;27;20153;-61
2022/01/29 06:10:23;;;;;;;5.07;2.43;;;;;;;-2.55;100.00;97586.94;5133469;27;20804;-61
2022/01/29 06:13:01;;;;;;;10.20;1.83;;;;;;;-2.54;100.00;97584.34;5132776;27;20139;-61
2022/01/29 06:15:30;;;;;;;9.37;4.20;;;;;;;-2.50;100.00;97579.97;5133443;27;20134;-61
2022/01/29 06:17:58;;;;;;;10.43;2.47;;;;;;;-2.55;100.00;97579.22;5133607;27;20062;-60
2022/01/29 06:20:25;;;;;;;7.87;2.37;;;;;;;-2.52;100.00;97579.16;5114382;27;20039;-60
2022/01/29 06:22:52;;;;;;;4.33;2.27;;;;;;;-2.47;100.00;97585.91;5132817;27;20035;-61
2022/01/29 06:25:20;;;;;;;5.50;1.53;;;;;;;-2.48;100.00;97579.03;5132726;27;20035;-61
2022/01/29 06:27:47;;;;;;;7.23;1.63;;;;;;;-2.49;100.00;97585.09;5133408;27;20466;-68
2022/01/29 06:30:14;;;;;;;5.37;1.90;;;;;;;-2.42;100.00;97584.09;5134710;27;20284;-67
2022/01/29 06:32:43;;;;;;;6.73;1.83;;;;;;;-2.31;100.00;97589.00;5134548;27;20066;-67
2022/01/29 06:35:12;;;;;;;16.07;2.73;;;;;;;-2.23;100.00;97571.66;5133095;27;20123;-67
2022/01/29 06:37:40;;;;;;;6.17;2.70;;;;;;;-2.25;100.00;97571.69;5132625;27;20104;-66
2022/01/29 06:40:08;;;;;;;3.57;1.60;;;;;;;-2.24;100.00;97590.56;5132840;27;20518;-67
2022/01/29 06:42:36;;;;;;;6.53;2.00;;;;;;;-2.22;100.00;97583.69;5132414;27;20039;-68
2022/01/29 06:45:04;;;;;;;3.07;2.03;;;;;;;-2.22;100.00;97587.97;5132647;27;20437;-67
2022/01/29 06:47:32;;;;;;;2.00;1.80;;;;;;;-2.18;100.00;97587.88;5134571;27;20045;-67
2022/01/29 06:50:00;;;;;;;8.17;2.20;;;;;;;-2.19;100.00;97595.63;5132428;27;20066;-67
2022/01/29 06:52:27;;;;;;;4.57;2.07;;;;;;;-2.15;100.00;97595.56;5132518;27;20065;-68
2022/01/29 06:54:54;;;;;;;5.80;2.33;;;;;;;-2.06;100.00;97597.06;5132269;27;20049;-66
2022/01/29 06:57:21;;;;;;;8.77;2.20;;;;;;;-2.03;100.00;97597.84;5132509;27;20074;-67
2022/01/29 06:59:48;;;;;;;9.53;3.73;;;;;;;-1.99;100.00;97591.75;5132194;27;20074;-67
2022/01/29 07:02:15;;;;;;;10.70;3.43;;;;;;;-1.94;100.00;97583.94;5115601;27;20036;-67
2022/01/29 07:04:42;;;;;;;6.07;2.83;;;;;;;-1.86;100.00;97590.59;5132176;27;20043;-68
2022/01/29 07:07:10;;;;;;;13.23;3.23;;;;;;;-1.70;100.00;97593.66;5132084;27;20049;-67
2022/01/29 07:09:37;;;;;;;5.93;3.27;;;;;;;-1.66;100.00;97584.97;5132514;27;20035;-68
2022/01/29 07:12:09;;;;;;;7.33;3.00;;;;;;;-1.72;99.69;97580.81;5131851;27;20497;-68
2022/01/29 07:14:39;;;;;;;7.80;2.80;;;;;;;-1.71;100.00;97585.09;5113613;27;20642;-68
2022/01/29 07:17:10;;;;;;;5.40;3.00;;;;;;;-1.62;99.94;97573.69;5133500;27;20063;-69
2022/01/29 07:19:37;;;;;;;4.73;1.87;;;;;;;-1.50;99.36;97594.06;5131925;27;20487;-69
2022/01/29 07:22:06;;;;;;;6.23;2.60;;;;;;;-1.38;98.55;97596.34;5132471;27;20051;-69
2022/01/29 07:24:35;;;;;;;9.07;1.97;;;;;;;-1.47;97.73;97593.97;5130908;27;20122;-69
2022/01/29 07:27:03;;;;;;;6.37;2.00;;;;;;;-1.48;97.84;97598.31;5132135;27;20149;-69
2022/01/29 07:29:30;;;;;;;6.87;3.20;;;;;;;-1.44;98.19;97591.31;5131892;27;20449;-69
2022/01/29 07:31:58;;;;;;;5.67;2.27;;;;;;;-1.40;98.73;97601.53;5113245;27;20130;-69
2022/01/29 07:34:26;;;;;;;8.50;2.53;;;;;;;-1.35;98.22;97602.28;5132443;27;20050;-68
2022/01/29 07:36:54;;;;;;;8.47;2.67;;;;;;;-1.26;98.22;97601.19;5131019;27;20044;-69
2022/01/29 07:39:22;;;;;;;7.57;3.47;;;;;;;-1.05;97.61;97596.34;5131422;27;20065;-68
2022/01/29 07:41:51;;;;;;;5.63;2.00;;;;;;;-1.24;97.02;97592.53;5131532;27;20039;-67
2022/01/29 07:44:19;;;;;;;4.63;2.23;;;;;;;-1.28;96.99;97585.75;5132139;27;20059;-67
2022/01/29 07:46:46;;;;;;;2.93;2.67;;;;;;;-1.30;96.71;97587.53;5133342;27;20118;-68
2022/01/29 07:49:13;;;;;;;6.40;2.33;;;;;;;-1.36;96.28;97594.56;5133377;27;20098;-67
2022/01/29 07:51:41;;;;;;;5.13;2.67;;;;;;;-1.28;96.58;97600.41;5132841;27;20070;-66
2022/01/29 07:54:09;;;;;;;5.37;2.50;;;;;;;-1.28;96.77;97598.66;5131743;27;20039;-64
2022/01/29 07:56:36;;;;;;;7.43;2.37;;;;;;;-1.22;96.41;97590.78;5131727;27;20046;-69
2022/01/29 07:59:04;;;;;;;3.30;1.87;;;;;;;-1.14;96.24;97598.31;5133287;27;20066;-67
2022/01/29 08:01:31;;;;;;;5.47;2.10;;;;;;;-1.36;95.78;97602.31;5131153;27;20046;-64
2022/01/29 08:04:00;;;;;;;5.10;2.27;;;;;;;-1.46;96.62;97591.34;5131182;27;20066;-65
2022/01/29 08:06:29;;;;;;;3.60;2.30;;;;;;;-1.40;97.76;97596.38;5131636;28;20150;-64
2022/01/29 08:08:57;;;;;;;6.20;2.40;;;;;;;-1.23;97.59;97583.94;5127363;28;20046;-65
2022/01/29 08:11:24;;;;;;;4.80;2.37;;;;;;;-1.12;97.77;97587.09;5113083;28;20084;-66
2022/01/29 08:13:52;;;;;;;8.80;3.00;;;;;;;-0.96;96.59;97595.25;5097259;28;20074;-64
2022/01/29 08:16:20;;;;;;;7.13;3.10;;;;;;;-0.95;95.96;97584.91;5113391;28;20054;-64
2022/01/29 08:18:48;;;;;;;5.33;2.73;;;;;;;-0.66;95.17;97597.03;5131578;28;20043;-64
2022/01/29 08:21:15;;;;;;;6.07;2.80;;;;;;;-0.40;94.24;97595.44;5131886;28;20491;-66
2022/01/29 08:23:43;;;;;;;7.73;3.60;;;;;;;-0.17;93.06;97602.56;5131257;28;20473;-67
2022/01/29 08:26:11;;;;;;;5.73;3.43;;;;;;;-0.25;92.10;97595.00;5131921;28;20088;-66
2022/01/29 08:28:38;;;;;;;5.30;3.20;;;;;;;-0.54;92.18;97588.97;5113340;28;20039;-66
2022/01/29 08:31:06;;;;;;;17.50;3.70;;;;;;;-0.71;92.81;97601.50;5131575;28;20130;-67
2022/01/29 08:33:34;;;;;;;5.30;2.27;;;;;;;-0.63;92.82;97587.47;5131712;28;20039;-67
2022/01/29 08:36:03;;;;;;;5.17;3.13;;;;;;;-0.62;91.71;97604.66;5134597;27;20039;-68
2022/01/29 08:38:30;;;;;;;8.90;3.37;;;;;;;-0.18;91.89;97603.41;5118314;27;20499;-64
2022/01/29 08:40:58;;;;;;;8.13;3.30;;;;;;;-0.10;90.50;97589.38;5135019;27;20461;-65
2022/01/29 08:43:25;;;;;;;7.10;3.20;;;;;;;-0.04;90.66;97601.28;5134996;27;20063;-65
2022/01/29 08:45:52;;;;;;;7.23;3.07;;;;;;;-0.05;89.60;97607.38;5134766;27;20126;-66
2022/01/29 08:48:20;;;;;;;14.90;3.20;;;;;;;-0.24;90.12;97594.09;5135033;27;20061;-65
2022/01/29 08:50:49;;;;;;;5.73;2.43;;;;;;;-0.55;90.39;97600.19;5134571;27;20116;-66
2022/01/29 08:53:16;;;;;;;5.03;3.30;;;;;;;-0.67;91.13;97603.09;5134992;27;20063;-66
2022/01/29 08:55:43;;;;;;;8.87;3.17;;;;;;;-0.71;91.61;97615.25;5132142;27;20047;-67
2022/01/29 08:58:11;;;;;;;4.27;2.33;;;;;;;-0.66;91.70;97613.38;5134723;27;20049;-67
2022/01/29 09:00:40;;;;;;;8.10;2.70;;;;;;;-0.70;90.46;97622.13;5136007;27;20515;-66
2022/01/29 09:03:08;;;;;;;5.93;2.63;;;;;;;-0.37;91.37;97610.88;5136052;27;20043;-65
2022/01/29 09:05:35;;;;;;;8.57;3.57;;;;;;;-0.26;90.78;97614.00;5134797;27;20039;-65
2022/01/29 09:08:04;;;;;;;10.83;3.77;;;;;;;-0.27;89.71;97612.31;5116252;27;20050;-66
2022/01/29 09:10:32;;;;;;;7.70;3.03;;;;;;;-0.24;89.33;97627.72;5134263;27;20043;-65
2022/01/29 09:12:59;;;;;;;12.97;4.17;;;;;;;-0.25;88.64;97618.25;5134471;27;20074;-69
2022/01/29 09:15:26;;;;;;;7.40;2.43;;;;;;;-0.04;89.18;97632.31;5116476;27;20043;-65
2022/01/29 09:17:53;;;;;;;9.47;4.37;;;;;;;-0.09;88.55;97632.44;5134699;27;20095;-65
2022/01/29 09:20:23;;;;;;;4.23;2.50;;;;;;;-0.10;88.44;97617.84;5131013;27;20047;-65
2022/01/29 09:22:50;;;;;;;7.90;2.63;;;;;;;0.14;88.65;97629.19;5135045;27;20031;-64
2022/01/29 09:25:19;;;;;;;5.87;2.70;;;;;;;0.13;88.11;97625.75;5134646;27;20126;-66
2022/01/29 09:27:46;;;;;;;7.80;2.93;;;;;;;0.07;87.51;97607.84;5134460;27;20079;-67
2022/01/29 09:30:13;;;;;;;6.60;3.00;;;;;;;0.09;87.68;97605.22;5115609;27;20054;-67
2022/01/29 09:32:41;;;;;;;8.03;2.90;;;;;;;0.01;86.88;97613.19;5134682;27;20035;-65
2022/01/29 09:35:08;;;;;;;9.17;3.53;;;;;;;0.24;86.54;97609.94;5133822;27;20138;-65
2022/01/29 09:37:35;;;;;;;4.63;2.83;;;;;;;0.36;86.08;97604.38;5133468;27;20147;-66
2022/01/29 09:40:03;;;;;;;7.33;2.30;;;;;;;1.31;84.06;97607.28;5132414;27;20049;-66
2022/01/29 09:42:31;;;;;;;10.23;3.73;;;;;;;1.65;81.65;97589.63;5116425;27;20042;-66
2022/01/29 09:44:59;;;;;;;4.10;2.10;;;;;;;1.59;79.65;97581.22;5134375;27;20096;-66
2022/01/29 09:47:26;;;;;;;8.97;2.87;;;;;;;1.60;77.76;97569.97;5133481;27;20039;-66
2022/01/29 09:49:54;;;;;;;7.77;3.30;;;;;;;1.50;77.93;97594.50;5116100;27;20050;-65
2022/01/29 09:52:21;;;;;;;5.63;2.43;;;;;;;1.49;77.20;97605.78;5133770;27;20039;-66
2022/01/29 09:54:49;;;;;;;10.07;2.60;;;;;;;1.26;76.62;97591.88;5134998;27;20071;-66
2022/01/29 09:57:17;;;;;;;4.50;2.00;;;;;;;1.14;76.27;97596.63;5133521;27;20095;-66
2022/01/29 09:59:46;;;;;;;5.63;2.30;;;;;;;1.00;76.15;97572.94;5133556;27;20399;-69
2022/01/29 10:02:16;;;;;;;3.70;2.03;;;;;;;0.95;76.64;97580.03;5115436;27;20364;-69
2022/01/29 10:04:48;;;;;;;4.57;2.57;;;;;;;1.02;77.50;97578.91;5134039;27;20122;-67
2022/01/29 10:07:16;;;;;;;5.97;2.97;;;;;;;0.99;76.22;97581.59;5133669;27;20051;-67
2022/01/29 10:09:45;;;;;;;7.43;2.73;;;;;;;1.18;77.08;97580.94;5133840;27;20074;-67
2022/01/29 10:12:33;;;;;;;8.93;2.47;;;;;;;1.36;75.97;97581.22;5133024;27;20035;-67
2022/01/29 10:15:04;;;;;;;2.63;1.37;;;;;;;1.47;75.47;97582.50;5127841;27;20130;-67
2022/01/29 10:17:47;;;;;;;6.07;2.30;;;;;;;2.12;73.63;97586.13;5134561;27;20039;-70
2022/01/29 10:20:20;;;;;;;6.95;2.80;;;;;;;2.73;72.50;97587.19;5112467;27;20043;-66
2022/01/29 10:22:50;;;;;;;6.18;2.35;;;;;;;2.79;70.69;97581.72;5133451;27;20059;-68
2022/01/29 10:25:19;;;;;;;6.10;2.10;;;;;;;2.14;71.85;97579.13;5133705;27;20039;-68
2022/01/29 10:28:06;;;;;;;9.17;3.20;;;;;;;2.74;71.55;97575.88;5135195;27;20067;-65
2022/01/29 10:30:37;;;;;;;3.93;1.73;;;;;;;1.34;71.60;97589.84;5133427;27;20046;-67
2022/01/29 10:33:18;;;;;;;2.87;1.90;;;;;;;0.94;73.08;97601.63;5133088;27;20879;-66
2022/01/29 10:35:47;;;;;;;5.00;1.83;;;;;;;0.73;72.93;97591.97;5133011;27;20054;-65
2022/01/29 10:38:14;;;;;;;4.63;1.80;;;;;;;0.80;72.82;97596.06;5132705;27;20039;-64
2022/01/29 10:40:41;;;;;;;8.83;1.97;;;;;;;1.07;72.88;97589.97;5132597;27;20122;-65
2022/01/29 10:43:09;;;;;;;6.80;1.77;;;;;;;1.48;71.77;97609.28;5132627;27;20035;-65
2022/01/29 10:45:38;;;;;;;6.70;1.90;;;;;;;1.37;72.23;97594.09;5132820;27;20047;-64
2022/01/29 10:48:06;;;;;;;3.73;1.53;;;;;;;1.40;71.92;97606.94;5133284;27;20107;-64
2022/01/29 10:50:34;;;;;;;4.93;2.07;;;;;;;1.28;70.60;97600.47;5133208;27;20051;-65
2022/01/29 10:53:25;;;;;;;5.40;1.53;;;;;;;1.67;71.38;97599.94;5132306;27;20041;-65
2022/01/29 10:55:59;;;;;;;2.23;1.17;;;;;;;1.11;70.36;97592.41;5130499;27;20047;-64
2022/01/29 10:58:26;;;;;;;5.37;1.93;;;;;;;1.16;70.88;97592.25;5130459;27;20048;-65
2022/01/29 11:01:13;;;;;;;4.90;2.87;;;;;;;0.57;72.21;97585.59;5132273;27;20069;-65
2022/01/29 11:03:40;;;;;;;2.33;1.63;;;;;;;0.93;73.14;97598.19;5132913;27;20039;-65
2022/01/29 11:06:09;;;;;;;4.53;1.73;;;;;;;1.59;71.74;97576.88;5131726;27;20126;-65
2022/01/29 11:08:39;;;;;;;5.50;2.30;;;;;;;1.64;71.23;97571.53;5132556;27;20354;-68
2022/01/29 11:11:07;;;;;;;3.83;1.30;;;;;;;1.38;70.77;97568.13;5114767;27;20539;-69
2022/01/29 11:13:36;;;;;;;6.93;2.13;;;;;;;0.74;72.02;97575.53;5132490;27;20067;-68
2022/01/29 11:16:04;;;;;;;7.70;2.13;;;;;;;0.88;72.78;97573.34;5131776;27;20039;-72
2022/01/29 11:18:33;;;;;;;7.63;1.67;;;;;;;0.47;71.92;97569.53;5132839;27;20039;-70
2022/01/29 11:21:01;;;;;;;7.27;1.93;;;;;;;0.26;73.86;97584.84;5130638;27;20383;-71
2022/01/29 11:23:29;;;;;;;6.80;1.97;;;;;;;0.62;74.08;97587.16;5114597;27;20525;-71
2022/01/29 11:25:59;;;;;;;3.50;1.43;;;;;;;1.28;71.52;97577.13;5133309;27;20406;-71
2022/01/29 11:28:29;;;;;;;4.17;1.70;;;;;;;1.46;70.35;97567.88;5133525;27;20095;-71
2022/01/29 11:31:20;;;;;;;4.17;1.23;;;;;;;1.40;68.84;97580.19;5133487;27;20448;-72
2022/01/29 11:34:23;;;;;;;2.10;1.30;;;;;;;1.49;69.14;97565.16;5134234;27;20037;-72
2022/01/29 11:37:05;;;;;;;4.68;1.30;;;;;;;2.16;69.46;97553.13;5132217;27;20075;-71
2022/01/29 11:39:34;;;;;;;5.67;1.70;;;;;;;2.39;67.90;97550.50;5125336;27;20448;-72
2022/01/29 11:42:30;;;;;;;5.20;1.53;;;;;;;2.82;67.11;97551.28;5131646;27;20039;-72
2022/01/29 11:44:58;;;;;;;4.93;2.33;;;;;;;2.57;66.67;97552.34;5131935;27;20074;-69
2022/01/29 11:47:47;;;;;;;3.63;1.77;;;;;;;2.99;65.68;97551.41;5126551;27;20071;-66
2022/01/29 11:50:48;;;;;;;6.00;1.77;;;;;;;3.27;63.73;97545.91;5131574;27;20043;-65